Bearville North, Minnesota
Current Conditions -  °F | °C
As of 3:15 AM on Monday 24 Nov 2014 (Local Time) from KCQM Reporting Station
Light Snow Light Snow  
Wind Chill: 26°   Ceiling: 500
Heat Index: 32°   Visibility: 3mi
Dew Point: 30°   Wind: 7mph
Humidity: 93%   Direction: 310°NW
Pressure: 29.29"   Gusts: NA
Location:  47.8142°N, 92.9861°W
Report Text: KCQM 240915Z AUTO 31006KT 3SM -SN OVC005 00/M01 A2929 RMK AO2
Loading
Personal Weather Stations






























Interactive Weather Map New forecast layout! Learn more

10-Day Weather Forecast

Advertisements
Track Severe Weather on mobile